Time,TemperatureF,DewpointF,PressureIn,WindDirection,WindDirectionDegrees,WindSpeedMPH,WindSpeedGustMPH,Humidity,HourlyPrecipIn,Conditions,Clouds,dailyrainin,SoftwareType,DateUTC
2013-06-25 00:07:00,67.3,64.0,30.08,East,87,1.0,2.0,88,0.00,,,0.00,weatherlink.com 1.10,2013-06-25 04:07:00,
2013-06-25 00:22:00,67.4,65.0,30.08,East,87,1.0,2.0,90,0.00,,,0.00,weatherlink.com 1.10,2013-06-25 04:22:00,
2013-06-25 00:37:00,67.3,64.0,30.07,East,87,0.0,2.0,89,0.00,,,0.00,weatherlink.com 1.10,2013-06-25 04:37:00,
2013-06-25 00:52:00,67.4,64.0,30.08,East,87,0.0,2.0,89,0.00,,,0.00,weatherlink.com 1.10,2013-06-25 04:52:00,
2013-06-25 01:07:00,67.4,64.0,30.08,East,88,1.0,2.0,87,0.00,,,0.00,weatherlink.com 1.10,2013-06-25 05:07:00,
2013-06-25 01:22:00,67.3,64.0,30.07,East,87,1.0,1.0,88,0.00,,,0.00,weatherlink.com 1.10,2013-06-25 05:22:00,
2013-06-25 01:37:00,67.2,64.0,30.07,East,87,1.0,2.0,88,0.00,,,0.00,weatherlink.com 1.10,2013-06-25 05:37:00,
2013-06-25 01:52:00,67.5,64.0,30.08,WSW,245,0.0,2.0,88,0.00,,,0.00,weatherlink.com 1.10,2013-06-25 05:52:00,
2013-06-25 02:07:00,67.6,64.0,30.07,SW,234,0.0,2.0,89,0.00,,,0.00,weatherlink.com 1.10,2013-06-25 06:07:00,
2013-06-25 02:22:00,67.2,64.0,30.06,SW,234,1.0,2.0,89,0.00,,,0.00,weatherlink.com 1.10,2013-06-25 06:22:00,
2013-06-25 02:37:00,67.0,64.0,30.06,SW,234,0.0,1.0,90,0.00,,,0.00,weatherlink.com 1.10,2013-06-25 06:37:00,
2013-06-25 02:52:00,67.0,64.0,30.05,SW,219,0.0,2.0,91,0.00,,,0.00,weatherlink.com 1.10,2013-06-25 06:52:00,
2013-06-25 03:07:00,66.9,64.0,30.05,SW,219,0.0,2.0,90,0.00,,,0.00,weatherlink.com 1.10,2013-06-25 07:07:00,
2013-06-25 03:22:00,66.6,64.0,30.05,SE,146,0.0,2.0,91,0.00,,,0.00,weatherlink.com 1.10,2013-06-25 07:22:00,
2013-06-25 03:37:00,67.0,64.0,30.04,SE,124,1.0,3.0,89,0.00,,,0.00,weatherlink.com 1.10,2013-06-25 07:37:00,
2013-06-25 03:52:00,67.6,64.0,30.05,ENE,58,0.0,3.0,89,0.00,,,0.00,weatherlink.com 1.10,2013-06-25 07:52:00,
2013-06-25 04:07:00,67.4,65.0,30.05,NE,44,0.0,2.0,90,0.00,,,0.00,weatherlink.com 1.10,2013-06-25 08:07:00,
2013-06-25 04:22:00,67.3,65.0,30.05,East,91,0.0,5.0,92,0.00,,,0.00,weatherlink.com 1.10,2013-06-25 08:22:00,
2013-06-25 04:37:00,67.3,65.0,30.05,ESE,109,0.0,3.0,92,0.00,,,0.00,weatherlink.com 1.10,2013-06-25 08:37:00,
2013-06-25 04:52:00,67.2,65.0,30.05,ENE,78,0.0,3.0,93,0.00,,,0.00,weatherlink.com 1.10,2013-06-25 08:52:00,
2013-06-25 05:07:00,67.1,65.0,30.06,ENE,78,0.0,2.0,93,0.00,,,0.00,weatherlink.com 1.10,2013-06-25 09:07:00,
2013-06-25 05:22:00,67.2,66.0,30.05,NNE,33,0.0,2.0,94,0.00,,,0.00,weatherlink.com 1.10,2013-06-25 09:22:00,
2013-06-25 05:37:00,67.2,66.0,30.06,ENE,65,0.0,2.0,94,0.00,,,0.00,weatherlink.com 1.10,2013-06-25 09:37:00,
2013-06-25 05:52:00,67.2,66.0,30.05,ENE,63,1.0,2.0,94,0.00,,,0.00,weatherlink.com 1.10,2013-06-25 09:52:00,
2013-06-25 06:07:00,67.4,65.0,30.05,ENE,67,0.0,7.0,93,0.00,,,0.00,weatherlink.com 1.10,2013-06-25 10:07:00,
2013-06-25 06:22:00,67.2,66.0,30.06,NE,40,1.0,5.0,95,0.00,,,0.00,weatherlink.com 1.10,2013-06-25 10:22:00,
2013-06-25 06:37:00,67.0,66.0,30.05,ENE,68,0.0,5.0,95,0.00,,,0.00,weatherlink.com 1.10,2013-06-25 10:37:00,
2013-06-25 06:52:00,67.1,66.0,30.06,NE,42,1.0,4.0,95,0.00,,,0.00,weatherlink.com 1.10,2013-06-25 10:52:00,
2013-06-25 07:07:00,67.1,66.0,30.07,NE,43,0.0,3.0,96,0.00,,,0.00,weatherlink.com 1.10,2013-06-25 11:07:00,
2013-06-25 07:22:00,67.2,66.0,30.07,NE,35,2.0,3.0,95,0.00,,,0.00,weatherlink.com 1.10,2013-06-25 11:22:00,
2013-06-25 07:37:00,67.3,66.0,30.07,NE,34,0.0,4.0,95,0.00,,,0.00,weatherlink.com 1.10,2013-06-25 11:37:00,
2013-06-25 07:52:00,67.3,66.0,30.07,NE,42,0.0,7.0,95,0.00,,,0.00,weatherlink.com 1.10,2013-06-25 11:52:00,
2013-06-25 08:07:00,67.0,66.0,30.08,NNE,25,3.0,4.0,96,0.00,,,0.00,weatherlink.com 1.10,2013-06-25 12:07:00,
2013-06-25 08:22:00,66.9,66.0,30.08,NNE,27,1.0,5.0,97,0.00,,,0.00,weatherlink.com 1.10,2013-06-25 12:22:00,
2013-06-25 08:37:00,67.0,67.0,30.08,ENE,58,0.0,6.0,98,0.00,,,0.00,weatherlink.com 1.10,2013-06-25 12:37:00,
2013-06-25 08:52:00,67.4,67.0,30.08,NNE,28,1.0,8.0,98,0.00,,,0.00,weatherlink.com 1.10,2013-06-25 12:52:00,
2013-06-25 09:07:00,67.7,67.0,30.09,NE,44,4.0,7.0,98,0.00,,,0.00,weatherlink.com 1.10,2013-06-25 13:07:00,
2013-06-25 09:23:00,67.8,67.0,30.09,NE,46,2.0,6.0,98,0.00,,,0.00,weatherlink.com 1.10,2013-06-25 13:23:00,
2013-06-25 09:38:00,67.8,67.0,30.09,NNE,26,2.0,7.0,98,0.00,,,0.00,weatherlink.com 1.10,2013-06-25 13:38:00,
2013-06-25 09:53:00,67.8,67.0,30.09,NE,53,2.0,4.0,98,0.00,,,0.00,weatherlink.com 1.10,2013-06-25 13:53:00,
2013-06-25 10:08:00,67.9,67.0,30.09,NE,52,1.0,4.0,98,0.00,,,0.00,weatherlink.com 1.10,2013-06-25 14:08:00,
2013-06-25 10:23:00,68.4,68.0,30.09,NNE,27,0.0,4.0,98,0.00,,,0.00,weatherlink.com 1.10,2013-06-25 14:23:00,
2013-06-25 10:38:00,69.5,69.0,30.09,ENE,59,0.0,4.0,97,0.00,,,0.00,weatherlink.com 1.10,2013-06-25 14:38:00,
2013-06-25 10:53:00,70.7,69.0,30.08,NE,36,1.0,5.0,93,0.00,,,0.00,weatherlink.com 1.10,2013-06-25 14:53:00,
2013-06-25 11:08:00,72.0,69.0,30.08,NE,49,1.0,5.0,91,0.00,,,0.00,weatherlink.com 1.10,2013-06-25 15:08:00,
2013-06-25 11:23:00,72.4,69.0,30.08,NE,49,4.0,4.0,88,0.00,,,0.00,weatherlink.com 1.10,2013-06-25 15:23:00,
2013-06-25 11:38:00,73.4,69.0,30.08,NNE,30,1.0,7.0,85,0.00,,,0.00,weatherlink.com 1.10,2013-06-25 15:38:00,
2013-06-25 11:53:00,74.3,69.0,30.08,NNW,343,3.0,5.0,84,0.00,,,0.00,weatherlink.com 1.10,2013-06-25 15:53:00,
2013-06-25 12:08:00,74.0,70.0,30.07,NE,54,0.0,5.0,86,0.00,,,0.00,weatherlink.com 1.10,2013-06-25 16:08:00,
2013-06-25 12:23:00,75.1,70.0,30.07,WNW,290,0.0,7.0,83,0.00,,,0.00,weatherlink.com 1.10,2013-06-25 16:23:00,
2013-06-25 12:38:00,75.2,70.0,30.07,NNE,30,1.0,2.0,83,0.00,,,0.00,weatherlink.com 1.10,2013-06-25 16:38:00,
2013-06-25 12:53:00,74.3,69.0,30.07,NNE,30,2.0,4.0,84,0.00,,,0.00,weatherlink.com 1.10,2013-06-25 16:53:00,
2013-06-25 13:08:00,76.2,70.0,30.06,NE,54,2.0,5.0,82,0.00,,,0.00,weatherlink.com 1.10,2013-06-25 17:08:00,
2013-06-25 13:23:00,76.2,70.0,30.05,NNE,23,3.0,7.0,82,0.00,,,0.00,weatherlink.com 1.10,2013-06-25 17:23:00,
2013-06-25 13:38:00,76.3,70.0,30.05,NNE,23,1.0,5.0,80,0.00,,,0.00,weatherlink.com 1.10,2013-06-25 17:38:00,
2013-06-25 13:53:00,77.1,71.0,30.05,ENE,63,3.0,4.0,80,0.00,,,0.00,weatherlink.com 1.10,2013-06-25 17:53:00,
2013-06-25 14:08:00,78.0,70.0,30.04,NNE,26,0.0,7.0,77,0.00,,,0.00,weatherlink.com 1.10,2013-06-25 18:08:00,
2013-06-25 14:23:00,78.6,70.0,30.04,NNE,25,1.0,8.0,75,0.00,,,0.00,weatherlink.com 1.10,2013-06-25 18:23:00,
2013-06-25 14:38:00,78.6,70.0,30.04,ENE,66,2.0,6.0,76,0.00,,,0.00,weatherlink.com 1.10,2013-06-25 18:38:00,
2013-06-25 14:53:00,77.5,69.0,30.03,NE,55,1.0,6.0,76,0.00,,,0.00,weatherlink.com 1.10,2013-06-25 18:53:00,
2013-06-25 15:08:00,77.1,69.0,30.02,NE,41,2.0,4.0,76,0.00,,,0.00,weatherlink.com 1.10,2013-06-25 19:08:00,
2013-06-25 15:23:00,79.5,71.0,30.02,NE,40,2.0,3.0,75,0.00,,,0.00,weatherlink.com 1.10,2013-06-25 19:23:00,
2013-06-25 15:38:00,78.0,70.0,30.02,NE,35,1.0,6.0,76,0.00,,,0.00,weatherlink.com 1.10,2013-06-25 19:38:00,
2013-06-25 15:53:00,78.6,70.0,30.01,NNE,17,2.0,8.0,75,0.00,,,0.00,weatherlink.com 1.10,2013-06-25 19:53:00,
2013-06-25 16:08:00,79.0,70.0,30.01,WSW,237,2.0,11.0,75,0.00,,,0.00,weatherlink.com 1.10,2013-06-25 20:08:00,
2013-06-25 16:23:00,78.7,70.0,29.99,North,5,3.0,8.0,74,0.00,,,0.00,weatherlink.com 1.10,2013-06-25 20:23:00,
2013-06-25 16:38:00,79.2,71.0,29.99,NNE,22,1.0,10.0,76,0.00,,,0.00,weatherlink.com 1.10,2013-06-25 20:38:00,
2013-06-25 16:53:00,78.8,70.0,29.98,NE,50,2.0,7.0,75,0.00,,,0.00,weatherlink.com 1.10,2013-06-25 20:53:00,
2013-06-25 17:08:00,79.9,71.0,29.98,NE,50,4.0,4.0,74,0.00,,,0.00,weatherlink.com 1.10,2013-06-25 21:08:00,
2013-06-25 17:23:00,79.1,70.0,29.97,NE,55,3.0,5.0,74,0.00,,,0.00,weatherlink.com 1.10,2013-06-25 21:23:00,
2013-06-25 17:39:00,79.7,70.0,29.97,ENE,67,1.0,3.0,73,0.00,,,0.00,weatherlink.com 1.10,2013-06-25 21:39:00,
2013-06-25 17:54:00,80.0,71.0,29.97,NE,46,1.0,5.0,75,0.00,,,0.00,weatherlink.com 1.10,2013-06-25 21:54:00,
2013-06-25 18:09:00,80.3,72.0,29.97,NE,42,1.0,4.0,76,0.00,,,0.00,weatherlink.com 1.10,2013-06-25 22:09:00,
2013-06-25 18:24:00,79.5,71.0,29.97,NE,43,3.0,9.0,76,0.00,,,0.00,weatherlink.com 1.10,2013-06-25 22:24:00,
2013-06-25 18:39:00,79.2,71.0,29.97,NE,42,0.0,3.0,77,0.00,,,0.00,weatherlink.com 1.10,2013-06-25 22:39:00,
2013-06-25 18:54:00,79.4,71.0,29.96,NE,42,1.0,2.0,76,0.00,,,0.00,weatherlink.com 1.10,2013-06-25 22:54:00,
2013-06-25 19:09:00,79.7,71.0,29.96,NE,42,0.0,3.0,75,0.00,,,0.00,weatherlink.com 1.10,2013-06-25 23:09:00,
2013-06-25 19:24:00,78.5,71.0,29.96,NE,42,0.0,2.0,78,0.00,,,0.00,weatherlink.com 1.10,2013-06-25 23:24:00,
2013-06-25 19:39:00,77.8,72.0,29.96,NE,42,0.0,1.0,81,0.00,,,0.00,weatherlink.com 1.10,2013-06-25 23:39:00,
2013-06-25 19:54:00,78.0,72.0,29.96,NE,42,2.0,3.0,81,0.00,,,0.00,weatherlink.com 1.10,2013-06-25 23:54:00,
2013-06-25 20:09:00,77.6,72.0,29.95,NE,42,0.0,1.0,82,0.00,,,0.00,weatherlink.com 1.10,2013-06-26 00:09:00,
2013-06-25 20:24:00,77.0,71.0,29.96,NE,43,0.0,1.0,81,0.00,,,0.00,weatherlink.com 1.10,2013-06-26 00:24:00,
2013-06-25 20:39:00,75.9,70.0,29.96,NE,43,0.0,2.0,83,0.00,,,0.00,weatherlink.com 1.10,2013-06-26 00:39:00,
2013-06-25 20:54:00,74.8,70.0,29.96,NE,43,0.0,1.0,86,0.00,,,0.00,weatherlink.com 1.10,2013-06-26 00:54:00,
2013-06-25 21:09:00,74.0,70.0,29.97,NE,43,0.0,2.0,87,0.00,,,0.00,weatherlink.com 1.10,2013-06-26 01:09:00,
2013-06-25 21:24:00,73.3,70.0,29.97,NE,43,1.0,2.0,89,0.00,,,0.00,weatherlink.com 1.10,2013-06-26 01:24:00,
2013-06-25 21:39:00,73.0,70.0,29.97,NE,43,1.0,1.0,89,0.00,,,0.00,weatherlink.com 1.10,2013-06-26 01:39:00,
2013-06-25 21:54:00,72.2,69.0,29.97,NE,43,1.0,2.0,90,0.00,,,0.00,weatherlink.com 1.10,2013-06-26 01:54:00,
2013-06-25 22:09:00,71.6,68.0,29.98,South,181,0.0,3.0,89,0.00,,,0.00,weatherlink.com 1.10,2013-06-26 02:09:00,
2013-06-25 22:24:00,71.6,68.0,29.98,South,181,1.0,2.0,88,0.00,,,0.00,weatherlink.com 1.10,2013-06-26 02:24:00,
2013-06-25 22:39:00,71.3,68.0,29.98,South,181,1.0,2.0,88,0.00,,,0.00,weatherlink.com 1.10,2013-06-26 02:39:00,
2013-06-25 22:54:00,71.3,67.0,29.98,South,181,0.0,2.0,87,0.00,,,0.00,weatherlink.com 1.10,2013-06-26 02:54:00,
2013-06-25 23:09:00,71.5,68.0,29.99,South,180,0.0,2.0,89,0.00,,,0.00,weatherlink.com 1.10,2013-06-26 03:09:00,
2013-06-25 23:24:00,71.4,68.0,29.99,NE,49,0.0,3.0,90,0.00,,,0.00,weatherlink.com 1.10,2013-06-26 03:24:00,
2013-06-25 23:39:00,71.2,69.0,29.98,NE,44,0.0,2.0,91,0.00,,,0.00,weatherlink.com 1.10,2013-06-26 03:39:00,
2013-06-25 23:54:00,71.3,68.0,29.98,NE,44,0.0,2.0,90,0.00,,,0.00,weatherlink.com 1.10,2013-06-26 03:54:00,